Barrow, AK

11:52 PM AKST on February 06, 2016 (GMT -0900)
Wiley Post-Will Rogers Memorial | | Change Station
CLOSE
Current Station
Airport
Location: Barrow,
Elevation: 43 ft
Nearby Weather Stations

Elev 43 ft 71.28 °N, 156.79 °W | Updated 3 minutes ago

Light Freezing Fog
Freezing Fog
-15 °F
Feels Like -44 °F
N
24
Wind Variable Wind from East

Today
High -- | Low -- °F
--% Chance of Precip.
Yesterday
High -- | Low -- °F
Precip. -- in
Pressure 30.17 in
Visibility 0.5 miles
Clouds Overcast 700 ft
Windchill -44 °F
Dew Point -18 °F
Humidity 84%
Rainfall 0.11 in
Snow Depth Not available.
11:05 AM 4:18 PM
Waning Crescent, 2% visible
SPECI PABR 070849Z AUTO 08021KT 1/2SM R07/3500V4000FT FZFG OVC007 M26/M28 A3017 RMK AO2 PK WND 08026/0826 TSNO
Pressure 30.17 in
Visibility 0.5 miles
Clouds Overcast 700 ft
Windchill -44 °F
Dew Point -18 °F
Humidity 84%
Rainfall 0.11 in
Snow Depth Not available.
11:05 AM 4:18 PM
Waning Crescent, 2% visible
SPECI PABR 070849Z AUTO 08021KT 1/2SM R07/3500V4000FT FZFG OVC007 M26/M28 A3017 RMK AO2 PK WND 08026/0826 TSNO

10-Day Weather Forecast

Almanac

Astronomy

Feb. 06, 2016 Rise Set
Actual Time
Civil Twilight
Nautical Twilight
Astronomical Twilight
Moon
Length of Visible Light
Length of Day
Tomorrow will be .
, % of the Moon is Illuminated

Today's Extremes

State Highs State Lows

Community

WunderPhotos

Upload Photos

1,891,171 photos uploaded!

WunderBlog® & News

Nearby

Air Quality

  Air Quality AQ Index Pollutant
Not available.

Snow Depth

Station Depth Elevation

Earthquake Activity

City Distance Mag. Time & Date
Minimum magnitude displayed is 2.5.

Coastal Water Temperatures

Place Temperature

Stations

Nearby Weather Stations

Station Location Temp. Windchill Dew Point Humidity Wind Precip. Elev Updated Type
                   

Watches & Warnings

There are currently no watches in effect.